War Admiral — WDB7881 — position and weather

sailwx.info

Track history (hours):
 
Tides and Currents Weather Stations Pressure Air Temp Water Temp Dewpoint Dewpoint Depression Visibility Wind Speed Wind Dir Waves Ship Positions

War Admiral

Owner: POINT MARINE, L.L.C., NEW ORLEANS,, LA. More information available from US FCC via Universal Licensing System and Coast Guard Vessel Documentation Center.

Last reported at 2014-Nov-22 00:33 UTC. Time now 2014-Nov-22 09:00 UTC.
Position N 34°15' W 119°38'.

Length 66 m; draft 3.7 m.

Type: Cargo ship. MMSI: 368164000.

Date/timePositionNaut miles runAvg speedWind from/ knotsBaromVisibWave heightAir tempDewpointWater temp
2014-Nov-22 00:33N 34°15' W 119°38'1212.5
2014-Nov-21 23:33N 34°19' W 119°52'1312.6
2014-Nov-21 22:31N 34°23' W 120°07'3 2.8
2014-Nov-21 21:33N 34°23' W 120°10'0 0.0
2014-Nov-21 16:26N 34°23' W 120°10'0 0.0
2014-Nov-21 15:26N 34°23' W 120°10'4 1.3
2014-Nov-21 12:33N 34°23' W 120°05'2 2.3
2014-Nov-21 11:33N 34°23' W 120°03'1 1.3
2014-Nov-21 10:33N 34°22' W 120°04'3 3.4
2014-Nov-21 09:33N 34°23' W 119°60'1 0.8
2014-Nov-21 08:33N 34°23' W 119°59'5 5.4
2014-Nov-21 07:33N 34°23' W 120°06'0 0.2
2014-Nov-21 06:33N 34°22' W 120°06'4 4.4
2014-Nov-21 05:33N 34°23' W 120°00'4 4.2
2014-Nov-21 04:33N 34°23' W 120°06'4 3.5
2014-Nov-21 03:30N 34°23' W 120°10'3 1.2
2014-Nov-21 01:27N 34°22' W 120°07'7 1.4
2014-Nov-20 20:33N 34°20' W 119°59'1212.3
2014-Nov-20 19:33N 34°16' W 119°45'5 0.3
2014-Nov-20 03:12N 34°15' W 119°39'811.7
2014-Nov-20 02:33N 34°17' W 119°48'1212.0
2014-Nov-20 01:33N 34°21' W 120°02'1 0.5
2014-Nov-19 23:20N 34°21' W 120°00'1012.4
2014-Nov-19 22:33N 34°18' W 119°49'10 0.6
2014-Nov-19 06:33N 34°15' W 119°38'1211.9
2014-Nov-19 05:33N 34°18' W 119°52'1312.2
2014-Nov-19 04:31N 34°22' W 120°07'3 2.9
2014-Nov-19 03:32N 34°23' W 120°10'8 4.0
2014-Nov-19 01:32N 34°21' W 120°00'1212.8
2014-Nov-19 00:33N 34°18' W 119°46'11 0.4
2014-Nov-17 21:25N 34°14' W 119°33'1011.5
2014-Nov-17 20:33N 34°17' W 119°44'1111.3
2014-Nov-17 19:33N 34°20' W 119°58'1110.3
2014-Nov-17 18:31N 34°23' W 120°10'0 0.0
2014-Nov-17 17:29N 34°23' W 120°10'0 0.1
2014-Nov-17 14:23N 34°23' W 120°10'0 0.3
2014-Nov-17 13:33N 34°23' W 120°10'0 0.0
2014-Nov-17 12:34N 34°23' W 120°10'3 1.1
2014-Nov-17 09:33N 34°23' W 120°06'3 3.1
2014-Nov-17 08:33N 34°23' W 120°10'0 0.1
2014-Nov-17 05:08N 34°23' W 120°10'2 2.6
2014-Nov-17 04:29N 34°22' W 120°08'2 1.9
2014-Nov-17 03:34N 34°23' W 120°10'1 0.6
2014-Nov-17 02:24N 34°23' W 120°11'3 3.1
2014-Nov-17 01:25N 34°23' W 120°07'2 2.3
2014-Nov-17 00:27N 34°23' W 120°10'0 0.0
2014-Nov-16 23:33N 34°23' W 120°10'0 0.1
2014-Nov-16 22:17N 34°23' W 120°10'0 0.1
2014-Nov-16 21:29N 34°23' W 120°10'1 0.3
2014-Nov-16 18:29N 34°23' W 120°09'1 0.4
2014-Nov-16 16:17N 34°23' W 120°10'1 1.0
2014-Nov-16 15:05N 34°23' W 120°08'1 2.6
2014-Nov-16 14:33N 34°23' W 120°10'5 3.2
2014-Nov-16 13:08N 34°22' W 120°05'610.3
2014-Nov-16 12:34N 34°20' W 119°58'1010.2
2014-Nov-16 11:33N 34°17' W 119°46'1110.5
2014-Nov-16 10:31N 34°14' W 119°33'  
2014-Nov-13 19:17N 34°14' W 119°42'1111.8
2014-Nov-13 18:23N 34°17' W 119°55'1011.4
2014-Nov-13 17:31N 34°19' W 120°07'2 0.5
2014-Nov-13 12:32N 34°20' W 120°04'1211.8
2014-Nov-13 11:33N 34°17' W 119°50'1211.9
2014-Nov-13 10:33N 34°15' W 119°36'1 0.1
2014-Nov-12 06:28N 34°14' W 119°35'1112.4
2014-Nov-12 05:33N 34°17' W 119°48'1212.1
2014-Nov-12 04:33N 34°21' W 120°02'4 1.9
2014-Nov-12 02:33N 34°20' W 119°58'1312.5
2014-Nov-12 01:32N 34°17' W 119°43'  
Track history (hours):
 
Tides and Currents Weather Stations Pressure Air Temp Water Temp Dewpoint Dewpoint Depression Visibility Wind Speed Wind Dir Waves Ship Positions

War Admiral

Owner: POINT MARINE, L.L.C., NEW ORLEANS,, LA. More information available from US FCC via Universal Licensing System and Coast Guard Vessel Documentation Center.

Last reported at 2014-Nov-22 00:33 UTC. Time now 2014-Nov-22 09:00 UTC.
Position N 34°15' W 119°38'.

Length 66 m; draft 3.7 m.

Type: Cargo ship. MMSI: 368164000.

Date/timePositionNaut miles runAvg speedWind from/ knotsBaromVisibWave heightAir tempDewpointWater temp
2014-Nov-22 00:33N 34°15' W 119°38'1212.5
2014-Nov-21 23:33N 34°19' W 119°52'1312.6
2014-Nov-21 22:31N 34°23' W 120°07'3 2.8
2014-Nov-21 21:33N 34°23' W 120°10'0 0.0
2014-Nov-21 16:26N 34°23' W 120°10'0 0.0
2014-Nov-21 15:26N 34°23' W 120°10'4 1.3
2014-Nov-21 12:33N 34°23' W 120°05'2 2.3
2014-Nov-21 11:33N 34°23' W 120°03'1 1.3
2014-Nov-21 10:33N 34°22' W 120°04'3 3.4
2014-Nov-21 09:33N 34°23' W 119°60'1 0.8
2014-Nov-21 08:33N 34°23' W 119°59'5 5.4
2014-Nov-21 07:33N 34°23' W 120°06'0 0.2
2014-Nov-21 06:33N 34°22' W 120°06'4 4.4
2014-Nov-21 05:33N 34°23' W 120°00'4 4.2
2014-Nov-21 04:33N 34°23' W 120°06'4 3.5
2014-Nov-21 03:30N 34°23' W 120°10'3 1.2
2014-Nov-21 01:27N 34°22' W 120°07'7 1.4
2014-Nov-20 20:33N 34°20' W 119°59'1212.3
2014-Nov-20 19:33N 34°16' W 119°45'5 0.3
2014-Nov-20 03:12N 34°15' W 119°39'811.7
2014-Nov-20 02:33N 34°17' W 119°48'1212.0
2014-Nov-20 01:33N 34°21' W 120°02'1 0.5
2014-Nov-19 23:20N 34°21' W 120°00'1012.4
2014-Nov-19 22:33N 34°18' W 119°49'10 0.6
2014-Nov-19 06:33N 34°15' W 119°38'1211.9
2014-Nov-19 05:33N 34°18' W 119°52'1312.2
2014-Nov-19 04:31N 34°22' W 120°07'3 2.9
2014-Nov-19 03:32N 34°23' W 120°10'8 4.0
2014-Nov-19 01:32N 34°21' W 120°00'1212.8
2014-Nov-19 00:33N 34°18' W 119°46'11 0.4
2014-Nov-17 21:25N 34°14' W 119°33'1011.5
2014-Nov-17 20:33N 34°17' W 119°44'1111.3
2014-Nov-17 19:33N 34°20' W 119°58'1110.3
2014-Nov-17 18:31N 34°23' W 120°10'0 0.0
2014-Nov-17 17:29N 34°23' W 120°10'0 0.1
2014-Nov-17 14:23N 34°23' W 120°10'0 0.3
2014-Nov-17 13:33N 34°23' W 120°10'0 0.0
2014-Nov-17 12:34N 34°23' W 120°10'3 1.1
2014-Nov-17 09:33N 34°23' W 120°06'3 3.1
2014-Nov-17 08:33N 34°23' W 120°10'0 0.1
2014-Nov-17 05:08N 34°23' W 120°10'2 2.6
2014-Nov-17 04:29N 34°22' W 120°08'2 1.9
2014-Nov-17 03:34N 34°23' W 120°10'1 0.6
2014-Nov-17 02:24N 34°23' W 120°11'3 3.1
2014-Nov-17 01:25N 34°23' W 120°07'2 2.3
2014-Nov-17 00:27N 34°23' W 120°10'0 0.0
2014-Nov-16 23:33N 34°23' W 120°10'0 0.1
2014-Nov-16 22:17N 34°23' W 120°10'0 0.1
2014-Nov-16 21:29N 34°23' W 120°10'1 0.3
2014-Nov-16 18:29N 34°23' W 120°09'1 0.4
2014-Nov-16 16:17N 34°23' W 120°10'1 1.0
2014-Nov-16 15:05N 34°23' W 120°08'1 2.6
2014-Nov-16 14:33N 34°23' W 120°10'5 3.2
2014-Nov-16 13:08N 34°22' W 120°05'610.3
2014-Nov-16 12:34N 34°20' W 119°58'1010.2
2014-Nov-16 11:33N 34°17' W 119°46'1110.5
2014-Nov-16 10:31N 34°14' W 119°33'  
2014-Nov-13 19:17N 34°14' W 119°42'1111.8
2014-Nov-13 18:23N 34°17' W 119°55'1011.4
2014-Nov-13 17:31N 34°19' W 120°07'2 0.5
2014-Nov-13 12:32N 34°20' W 120°04'1211.8
2014-Nov-13 11:33N 34°17' W 119°50'1211.9
2014-Nov-13 10:33N 34°15' W 119°36'1 0.1
2014-Nov-12 06:28N 34°14' W 119°35'1112.4
2014-Nov-12 05:33N 34°17' W 119°48'1212.1
2014-Nov-12 04:33N 34°21' W 120°02'4 1.9
2014-Nov-12 02:33N 34°20' W 119°58'1312.5
2014-Nov-12 01:32N 34°17' W 119°43'  

Dump ship's entire track history